createdAt,value
2023-04-15T00:01:40.117Z,8.04
2023-04-15T00:04:48.099Z,7.98
2023-04-15T00:07:53.892Z,7.97
2023-04-15T00:11:02.774Z,7.96
2023-04-15T00:14:07.470Z,7.93
2023-04-15T00:17:11.225Z,7.91
2023-04-15T00:20:15.583Z,7.96
2023-04-15T00:23:19.573Z,7.90
2023-04-15T00:26:23.407Z,7.88
2023-04-15T00:29:27.459Z,7.85
2023-04-15T00:32:31.275Z,7.86
2023-04-15T00:35:36.922Z,7.87
2023-04-15T00:38:40.851Z,7.84
2023-04-15T00:41:45.664Z,7.87
2023-04-15T00:44:50.030Z,7.87
2023-04-15T00:47:54.184Z,7.90
2023-04-15T00:50:58.109Z,7.85
2023-04-15T00:54:06.708Z,7.82
2023-04-15T00:57:10.597Z,7.87
2023-04-15T01:00:14.833Z,7.89
2023-04-15T01:03:19.113Z,7.89
2023-04-15T01:06:23.424Z,7.86
2023-04-15T01:09:27.195Z,7.86
2023-04-15T01:12:32.335Z,7.76
2023-04-15T01:15:36.513Z,7.77
2023-04-15T01:18:41.497Z,7.79
2023-04-15T01:21:45.344Z,7.81
2023-04-15T01:25:01.876Z,7.75
2023-04-15T01:28:05.954Z,7.77
2023-04-15T01:31:11.933Z,7.78
2023-04-15T01:34:15.581Z,7.79
2023-04-15T01:37:19.270Z,7.75
2023-04-15T01:40:23.098Z,7.82
2023-04-15T01:43:27.119Z,7.87
2023-04-15T01:46:30.772Z,7.84
2023-04-15T01:49:34.653Z,7.83
2023-04-15T01:52:38.720Z,7.85
2023-04-15T01:55:43.093Z,7.85
2023-04-15T01:58:47.122Z,7.84
2023-04-15T02:01:51.029Z,7.84
2023-04-15T02:04:55.621Z,7.84
2023-04-15T02:07:59.381Z,7.75
2023-04-15T02:11:03.306Z,7.71
2023-04-15T02:14:07.209Z,7.77
2023-04-15T02:17:11.107Z,7.72
2023-04-15T02:20:15.330Z,7.69
2023-04-15T02:23:19.451Z,7.69
2023-04-15T02:26:25.025Z,7.70
2023-04-15T02:29:29.099Z,7.73
2023-04-15T02:32:32.933Z,7.71
2023-04-15T02:35:39.411Z,7.74
2023-04-15T02:38:43.296Z,7.69
2023-04-15T02:41:51.798Z,7.68
2023-04-15T02:44:56.426Z,7.74
2023-04-15T02:48:03.871Z,7.72
2023-04-15T02:51:11.612Z,7.70
2023-04-15T02:54:16.849Z,7.63
2023-04-15T02:57:20.863Z,7.58
2023-04-15T03:00:25.424Z,7.57
2023-04-15T03:03:29.493Z,7.57
2023-04-15T03:06:33.926Z,7.56
2023-04-15T03:09:40.317Z,7.56
2023-04-15T03:12:44.323Z,7.53
2023-04-15T03:15:48.448Z,7.59
2023-04-15T03:18:52.595Z,7.57
2023-04-15T03:21:57.218Z,7.55
2023-04-15T03:25:01.862Z,7.55
2023-04-15T03:28:06.107Z,7.61
2023-04-15T03:31:10.074Z,7.59
2023-04-15T03:34:13.773Z,7.66
2023-04-15T03:37:17.592Z,7.64
2023-04-15T03:40:21.567Z,7.65
2023-04-15T03:43:25.662Z,7.64
2023-04-15T03:46:29.540Z,7.63
2023-04-15T03:49:33.390Z,7.65
2023-04-15T03:52:37.587Z,7.62
2023-04-15T03:55:41.597Z,7.60
2023-04-15T03:58:46.145Z,7.60
2023-04-15T04:01:50.937Z,7.65
2023-04-15T04:04:54.812Z,7.56
2023-04-15T04:07:58.615Z,7.62
2023-04-15T04:11:02.460Z,7.56
2023-04-15T04:14:06.171Z,7.55
2023-04-15T04:17:10.570Z,7.58
2023-04-15T04:20:14.445Z,7.63
2023-04-15T04:23:18.298Z,7.59
2023-04-15T04:26:22.738Z,7.64
2023-04-15T04:29:27.112Z,7.65
2023-04-15T04:32:31.429Z,7.63
2023-04-15T04:35:37.609Z,7.66
2023-04-15T04:38:41.711Z,7.66
2023-04-15T04:41:45.403Z,7.66
2023-04-15T04:44:49.068Z,7.61
2023-04-15T04:47:52.774Z,7.64
2023-04-15T04:50:56.648Z,7.63
2023-04-15T04:54:01.802Z,7.66
2023-04-15T04:57:08.241Z,7.66
2023-04-15T05:00:12.597Z,7.67
2023-04-15T05:03:16.986Z,7.64
2023-04-15T05:06:21.284Z,7.68
2023-04-15T05:09:25.460Z,7.68
2023-04-15T05:12:29.609Z,7.69
2023-04-15T05:15:34.973Z,7.69
2023-04-15T05:18:38.818Z,7.71
2023-04-15T05:21:42.940Z,7.71
2023-04-15T05:24:47.159Z,7.72
2023-04-15T05:27:50.856Z,7.74
2023-04-15T05:30:54.927Z,7.70
2023-04-15T05:33:59.189Z,7.73
2023-04-15T05:37:03.402Z,7.69
2023-04-15T05:40:08.012Z,7.70
2023-04-15T05:43:11.833Z,7.72
2023-04-15T05:46:15.982Z,7.71
2023-04-15T05:49:20.216Z,7.75
2023-04-15T05:52:24.598Z,7.84
2023-04-15T05:55:28.575Z,7.81
2023-04-15T05:58:32.288Z,7.76
2023-04-15T06:01:36.476Z,7.82
2023-04-15T06:04:40.608Z,7.90
2023-04-15T06:07:47.283Z,7.86
2023-04-15T06:10:52.586Z,7.90
2023-04-15T06:13:56.623Z,7.89
2023-04-15T06:17:00.692Z,7.86
2023-04-15T06:20:04.709Z,7.90
2023-04-15T06:23:08.757Z,7.95
2023-04-15T06:26:12.500Z,7.97
2023-04-15T06:29:16.270Z,7.96
2023-04-15T06:32:20.671Z,7.95
2023-04-15T06:35:24.876Z,7.95
2023-04-15T06:38:28.710Z,8.01
2023-04-15T06:41:32.644Z,7.98
2023-04-15T06:44:37.226Z,8.01
2023-04-15T06:47:42.041Z,8.03
2023-04-15T06:50:46.718Z,8.01
2023-04-15T06:53:50.801Z,8.01
2023-04-15T06:56:54.534Z,8.07
2023-04-15T06:59:58.413Z,8.08
2023-04-15T07:03:03.717Z,8.09
2023-04-15T07:06:09.394Z,8.14
2023-04-15T07:09:13.515Z,8.15
2023-04-15T07:12:17.987Z,8.17
2023-04-15T07:15:22.357Z,8.21
2023-04-15T07:18:26.138Z,8.23
2023-04-15T07:21:29.979Z,8.20
2023-04-15T07:24:33.950Z,8.22
2023-04-15T07:27:37.724Z,8.24
2023-04-15T07:30:41.742Z,8.23
2023-04-15T07:33:46.226Z,8.25
2023-04-15T07:36:51.836Z,8.28
2023-04-15T07:39:55.722Z,8.28
2023-04-15T07:42:59.996Z,8.31
2023-04-15T07:46:03.700Z,8.35
2023-04-15T07:49:07.635Z,8.39
2023-04-15T07:52:11.617Z,8.43
2023-04-15T07:55:17.570Z,8.52
2023-04-15T07:58:21.610Z,8.53
2023-04-15T08:01:25.407Z,8.48
2023-04-15T08:04:29.274Z,8.48
2023-04-15T08:07:33.677Z,8.46
2023-04-15T08:10:37.640Z,8.47
2023-04-15T08:13:41.461Z,8.54
2023-04-15T08:16:45.554Z,8.54
2023-04-15T08:19:49.442Z,8.55
2023-04-15T08:22:53.755Z,8.57
2023-04-15T08:25:57.695Z,8.71
2023-04-15T08:29:01.873Z,8.65
2023-04-15T08:32:06.257Z,8.68
2023-04-15T08:35:10.391Z,8.70
2023-04-15T08:38:14.633Z,8.74
2023-04-15T08:41:22.619Z,8.73
2023-04-15T08:44:27.061Z,8.77
2023-04-15T08:47:32.006Z,8.80
2023-04-15T08:50:36.589Z,8.82
2023-04-15T08:53:40.439Z,8.82
2023-04-15T08:56:44.669Z,8.89
2023-04-15T08:59:49.493Z,8.95
2023-04-15T09:02:53.681Z,9.01
2023-04-15T09:05:58.397Z,8.98
2023-04-15T09:10:18.524Z,9.12
2023-04-15T09:13:23.012Z,9.21
2023-04-15T09:16:27.554Z,9.24
2023-04-15T09:19:33.637Z,9.31
2023-04-15T09:22:38.100Z,9.32
2023-04-15T09:25:44.766Z,9.33
2023-04-15T09:28:48.862Z,9.41
2023-04-15T09:31:53.188Z,9.39
2023-04-15T09:34:57.371Z,9.39
2023-04-15T09:38:09.649Z,9.45
2023-04-15T09:41:20.784Z,9.47
2023-04-15T09:44:25.369Z,9.44
2023-04-15T09:47:32.966Z,9.42
2023-04-15T09:50:41.232Z,9.42
2023-04-15T09:53:45.516Z,9.52
2023-04-15T09:56:49.927Z,9.51
2023-04-15T09:59:53.947Z,9.55
2023-04-15T10:02:58.359Z,9.60
2023-04-15T10:06:03.858Z,9.62
2023-04-15T10:09:08.559Z,9.66
2023-04-15T10:12:14.110Z,9.69
2023-04-15T10:15:18.994Z,9.81
2023-04-15T10:18:25.443Z,9.86
2023-04-15T10:21:30.799Z,9.91
2023-04-15T10:24:35.037Z,9.94
2023-04-15T10:27:42.139Z,9.96
2023-04-15T10:30:47.936Z,9.96
2023-04-15T10:33:52.890Z,9.94
2023-04-15T10:37:02.516Z,9.94
2023-04-15T10:40:45.750Z,9.88
2023-04-15T10:43:56.185Z,9.92
2023-04-15T10:47:00.608Z,10.05
2023-04-15T10:50:05.383Z,10.11
2023-04-15T10:53:10.632Z,10.09
2023-04-15T10:56:17.368Z,10.15
2023-04-15T10:59:22.418Z,10.19
2023-04-15T11:02:47.397Z,10.27
2023-04-15T11:05:52.924Z,10.31
2023-04-15T11:09:05.805Z,10.33
2023-04-15T11:12:10.548Z,10.36
2023-04-15T11:15:41.654Z,10.44
2023-04-15T11:18:55.961Z,10.52
2023-04-15T11:22:10.157Z,10.52
2023-04-15T11:25:23.606Z,10.54
2023-04-15T11:28:29.115Z,10.58
2023-04-15T11:31:33.022Z,10.58
2023-04-15T11:34:37.191Z,10.55
2023-04-15T11:37:41.810Z,10.50
2023-04-15T11:40:47.268Z,10.48
2023-04-15T11:43:52.868Z,10.53
2023-04-15T11:46:56.874Z,10.48
2023-04-15T11:50:21.923Z,10.51
2023-04-15T11:53:37.102Z,10.46
2023-04-15T11:56:41.498Z,10.47
2023-04-15T11:59:46.389Z,10.53
2023-04-15T12:03:13.298Z,10.59
2023-04-15T12:06:21.751Z,10.66
2023-04-15T12:09:26.976Z,10.74
2023-04-15T12:12:31.036Z,10.68
2023-04-15T12:15:39.251Z,10.67
2023-04-15T12:18:46.132Z,10.77
2023-04-15T12:21:50.456Z,10.78
2023-04-15T12:24:57.156Z,10.79
2023-04-15T12:28:01.269Z,10.88
2023-04-15T12:31:10.048Z,10.89
2023-04-15T12:34:15.309Z,10.99
2023-04-15T12:37:20.435Z,11.02
2023-04-15T12:40:24.691Z,11.09
2023-04-15T12:43:28.981Z,11.15
2023-04-15T12:46:33.453Z,11.15
2023-04-15T12:49:38.044Z,11.16
2023-04-15T12:52:42.343Z,11.28
2023-04-15T12:55:46.710Z,11.32
2023-04-15T12:58:51.483Z,11.38
2023-04-15T13:01:56.307Z,11.39
2023-04-15T13:05:00.882Z,11.36
2023-04-15T13:08:05.802Z,11.41
2023-04-15T13:11:10.668Z,11.32
2023-04-15T13:14:14.778Z,11.23
2023-04-15T13:17:20.507Z,11.24
2023-04-15T13:20:26.849Z,11.33
2023-04-15T13:23:31.026Z,11.37
2023-04-15T13:26:35.192Z,11.38
2023-04-15T13:29:40.295Z,11.30
2023-04-15T13:32:44.661Z,11.21
2023-04-15T13:35:48.846Z,11.20
2023-04-15T13:38:53.129Z,11.21
2023-04-15T13:41:57.475Z,11.21
2023-04-15T13:45:01.828Z,11.20
2023-04-15T13:48:06.360Z,11.21
2023-04-15T13:51:10.688Z,11.21
2023-04-15T13:54:14.932Z,11.22
2023-04-15T13:57:19.367Z,11.23
2023-04-15T14:00:23.779Z,11.26
2023-04-15T14:03:28.171Z,11.30
2023-04-15T14:06:32.141Z,11.36
2023-04-15T14:09:36.475Z,11.29
2023-04-15T14:12:41.001Z,11.24
2023-04-15T14:15:45.570Z,11.18
2023-04-15T14:18:49.800Z,11.12
2023-04-15T14:21:54.003Z,11.11
2023-04-15T14:24:58.208Z,11.09
2023-04-15T14:28:03.388Z,11.07
2023-04-15T14:31:07.731Z,11.09
2023-04-15T14:34:11.962Z,11.10
2023-04-15T14:37:16.276Z,11.14
2023-04-15T14:40:20.357Z,11.09
2023-04-15T14:43:24.683Z,11.07
2023-04-15T14:46:29.034Z,11.01
2023-04-15T14:49:33.182Z,10.99
2023-04-15T14:52:40.213Z,11.06
2023-04-15T14:55:45.106Z,11.10
2023-04-15T14:58:49.394Z,11.17
2023-04-15T15:01:53.371Z,11.21
2023-04-15T15:04:58.026Z,11.25
2023-04-15T15:08:02.331Z,11.26
2023-04-15T15:11:06.310Z,11.30
2023-04-15T15:14:10.278Z,11.39
2023-04-15T15:17:14.993Z,11.39
2023-04-15T15:20:19.363Z,11.29
2023-04-15T15:23:23.464Z,11.32
2023-04-15T15:26:28.157Z,11.24
2023-04-15T15:29:32.340Z,11.25
2023-04-15T15:32:38.056Z,11.28
2023-04-15T15:35:42.185Z,11.32
2023-04-15T15:38:46.451Z,11.31
2023-04-15T15:41:50.754Z,11.33
2023-04-15T15:44:54.809Z,11.35
2023-04-15T15:48:00.116Z,11.38
2023-04-15T15:51:04.712Z,11.35
2023-04-15T15:54:08.780Z,11.39
2023-04-15T15:57:12.917Z,11.40
2023-04-15T16:00:17.229Z,11.45
2023-04-15T16:03:21.583Z,11.48
2023-04-15T16:06:27.122Z,11.50
2023-04-15T16:09:31.673Z,11.45
2023-04-15T16:12:35.928Z,11.43
2023-04-15T16:15:40.033Z,11.38
2023-04-15T16:18:44.144Z,11.34
2023-04-15T16:21:48.505Z,11.36
2023-04-15T16:24:53.261Z,11.34
2023-04-15T16:28:03.167Z,11.32
2023-04-15T16:31:13.082Z,11.29
2023-04-15T16:34:18.651Z,11.29
2023-04-15T16:37:22.557Z,11.27
2023-04-15T16:40:26.803Z,11.26
2023-04-15T16:43:30.932Z,11.23
2023-04-15T16:46:35.242Z,11.26
2023-04-15T16:49:39.174Z,11.25
2023-04-15T16:52:43.490Z,11.24
2023-04-15T16:55:50.862Z,11.23
2023-04-15T16:58:55.040Z,11.20
2023-04-15T17:01:59.644Z,11.21
2023-04-15T17:05:04.179Z,11.20
2023-04-15T17:08:08.585Z,11.16
2023-04-15T17:11:12.555Z,11.05
2023-04-15T17:14:16.517Z,11.05
2023-04-15T17:17:22.413Z,11.00
2023-04-15T17:20:26.693Z,11.01
2023-04-15T17:23:31.282Z,11.00
2023-04-15T17:26:35.231Z,10.99
2023-04-15T17:29:39.067Z,10.97
2023-04-15T17:32:43.099Z,10.99
2023-04-15T17:35:47.312Z,10.97
2023-04-15T17:38:51.643Z,10.97
2023-04-15T17:41:57.275Z,10.88
2023-04-15T17:45:01.289Z,10.86
2023-04-15T17:48:05.828Z,10.82
2023-04-15T17:51:09.911Z,10.79
2023-04-15T17:54:14.018Z,10.79
2023-04-15T17:57:18.280Z,10.78
2023-04-15T18:00:22.519Z,10.79
2023-04-15T18:03:27.268Z,10.77
2023-04-15T18:06:31.256Z,10.77
2023-04-15T18:09:36.590Z,10.75
2023-04-15T18:12:40.802Z,10.80
2023-04-15T18:15:46.885Z,10.79
2023-04-15T18:18:52.214Z,10.77
2023-04-15T18:21:56.365Z,10.72
2023-04-15T18:25:04.408Z,10.70
2023-04-15T18:28:09.398Z,10.68
2023-04-15T18:31:14.103Z,10.70
2023-04-15T18:34:18.554Z,10.65
2023-04-15T18:37:22.632Z,10.68
2023-04-15T18:40:27.011Z,10.60
2023-04-15T18:43:31.209Z,10.56
2023-04-15T18:46:35.516Z,10.61
2023-04-15T18:49:41.405Z,10.55
2023-04-15T18:52:45.732Z,10.55
2023-04-15T18:55:49.690Z,10.53
2023-04-15T18:59:25.781Z,10.52
2023-04-15T19:02:17.777Z,10.52
2023-04-15T19:05:22.051Z,10.53
2023-04-15T19:08:26.387Z,10.54
2023-04-15T19:11:31.232Z,10.56
2023-04-15T19:14:35.300Z,10.55
2023-04-15T19:17:39.613Z,10.59
2023-04-15T19:20:44.020Z,10.59
2023-04-15T19:23:48.340Z,10.58
2023-04-15T19:26:52.521Z,10.58
2023-04-15T19:29:56.822Z,10.59
2023-04-15T19:33:00.897Z,10.60
2023-04-15T19:36:06.559Z,10.59
2023-04-15T19:39:10.726Z,10.58
2023-04-15T19:42:14.943Z,10.58
2023-04-15T19:45:19.038Z,10.58
2023-04-15T19:48:25.756Z,10.58
2023-04-15T19:51:30.267Z,10.62
2023-04-15T19:54:35.067Z,10.63
2023-04-15T19:57:39.526Z,10.62
2023-04-15T20:00:43.636Z,10.64
2023-04-15T20:03:48.624Z,10.61
2023-04-15T20:06:53.150Z,10.59
2023-04-15T20:09:57.340Z,10.60
2023-04-15T20:13:01.602Z,10.55
2023-04-15T20:16:07.951Z,10.58
2023-04-15T20:19:13.311Z,10.60
2023-04-15T20:22:17.445Z,10.59
2023-04-15T20:25:21.820Z,10.63
2023-04-15T20:28:27.454Z,10.59
2023-04-15T20:31:32.038Z,10.58
2023-04-15T20:34:36.796Z,10.60
2023-04-15T20:37:43.988Z,10.59
2023-04-15T20:40:48.329Z,10.57
2023-04-15T20:43:52.160Z,10.58
2023-04-15T20:46:56.736Z,10.56
2023-04-15T20:50:01.458Z,10.55
2023-04-15T20:53:06.047Z,10.56
2023-04-15T20:56:09.808Z,10.59
2023-04-15T20:59:13.940Z,10.59
2023-04-15T21:02:18.165Z,10.57
2023-04-15T21:05:22.498Z,10.56
2023-04-15T21:08:29.612Z,10.58
2023-04-15T21:11:53.088Z,10.55
2023-04-15T21:14:58.096Z,10.55
2023-04-15T21:18:02.542Z,10.54
2023-04-15T21:21:06.663Z,10.53
2023-04-15T21:24:10.924Z,10.52
2023-04-15T21:27:15.179Z,10.50
2023-04-15T21:30:19.523Z,10.49
2023-04-15T21:33:24.277Z,10.50
2023-04-15T21:36:28.637Z,10.49
2023-04-15T21:39:32.907Z,10.44
2023-04-15T21:42:37.260Z,10.45
2023-04-15T21:45:43.730Z,10.41
2023-04-15T21:49:07.726Z,10.43
2023-04-15T21:52:12.166Z,10.52
2023-04-15T21:55:16.045Z,10.45
2023-04-15T21:58:20.094Z,10.44
2023-04-15T22:01:24.755Z,10.42
2023-04-15T22:04:29.100Z,10.46
2023-04-15T22:07:33.703Z,10.46
2023-04-15T22:10:39.024Z,10.47
2023-04-15T22:13:43.224Z,10.49
2023-04-15T22:16:47.534Z,10.49
2023-04-15T22:19:51.963Z,10.46
2023-04-15T22:22:56.242Z,10.49
2023-04-15T22:26:00.672Z,10.46
2023-04-15T22:29:04.806Z,10.49
2023-04-15T22:32:09.202Z,10.52
2023-04-15T22:35:13.670Z,10.49
2023-04-15T22:38:17.889Z,10.46
2023-04-15T22:41:22.044Z,10.45
2023-04-15T22:44:26.176Z,10.46
2023-04-15T22:47:30.650Z,10.51
2023-04-15T22:50:37.251Z,10.49
2023-04-15T22:53:41.856Z,10.46
2023-04-15T22:56:46.042Z,10.45
2023-04-15T22:59:50.728Z,10.48
2023-04-15T23:02:55.043Z,10.47
2023-04-15T23:05:59.025Z,10.45
2023-04-15T23:09:03.457Z,10.44
2023-04-15T23:12:07.589Z,10.44
2023-04-15T23:15:11.776Z,10.45
2023-04-15T23:18:16.051Z,10.48
2023-04-15T23:21:20.112Z,10.47
2023-04-15T23:24:24.088Z,10.45
2023-04-15T23:27:28.259Z,10.45
2023-04-15T23:30:32.404Z,10.45
2023-04-15T23:33:38.152Z,10.44
2023-04-15T23:36:42.255Z,10.44
2023-04-15T23:39:46.514Z,10.43
2023-04-15T23:42:50.371Z,10.40
2023-04-15T23:45:54.630Z,10.43
2023-04-15T23:48:59.079Z,10.41
2023-04-15T23:52:03.679Z,10.40
2023-04-15T23:55:08.297Z,10.38
2023-04-15T23:58:12.568Z,10.38
